sensor_id;sensor_type;location;lat;lon;timestamp;temperature;humidity
14884;DHT22;7534;50.762;7.000;2023-05-16T00:01:13;12.90;99.90
14884;DHT22;7534;50.762;7.000;2023-05-16T00:03:43;13.00;99.90
14884;DHT22;7534;50.762;7.000;2023-05-16T00:06:14;13.00;99.90
14884;DHT22;7534;50.762;7.000;2023-05-16T00:08:43;12.90;99.90
14884;DHT22;7534;50.762;7.000;2023-05-16T00:11:08;13.00;99.90
14884;DHT22;7534;50.762;7.000;2023-05-16T00:13:34;12.90;99.90
14884;DHT22;7534;50.762;7.000;2023-05-16T00:16:00;12.70;99.90
14884;DHT22;7534;50.762;7.000;2023-05-16T00:18:26;12.80;99.90
14884;DHT22;7534;50.762;7.000;2023-05-16T00:20:53;12.70;99.90
14884;DHT22;7534;50.762;7.000;2023-05-16T00:23:19;12.70;99.90
14884;DHT22;7534;50.762;7.000;2023-05-16T00:25:46;12.60;99.90
14884;DHT22;7534;50.762;7.000;2023-05-16T00:28:13;12.40;99.90
14884;DHT22;7534;50.762;7.000;2023-05-16T00:30:39;12.40;99.90
14884;DHT22;7534;50.762;7.000;2023-05-16T00:33:05;12.30;99.90
14884;DHT22;7534;50.762;7.000;2023-05-16T00:35:30;12.20;99.90
14884;DHT22;7534;50.762;7.000;2023-05-16T00:37:56;12.20;99.90
14884;DHT22;7534;50.762;7.000;2023-05-16T00:40:22;12.20;99.90
14884;DHT22;7534;50.762;7.000;2023-05-16T00:42:47;12.00;99.90
14884;DHT22;7534;50.762;7.000;2023-05-16T00:45:13;12.00;99.90
14884;DHT22;7534;50.762;7.000;2023-05-16T00:47:40;12.10;99.90
14884;DHT22;7534;50.762;7.000;2023-05-16T00:50:05;12.00;99.90
14884;DHT22;7534;50.762;7.000;2023-05-16T00:52:32;12.00;99.90
14884;DHT22;7534;50.762;7.000;2023-05-16T00:54:58;11.80;99.90
14884;DHT22;7534;50.762;7.000;2023-05-16T00:57:24;11.90;99.90
14884;DHT22;7534;50.762;7.000;2023-05-16T00:59:50;11.90;99.90
14884;DHT22;7534;50.762;7.000;2023-05-16T01:02:16;12.00;99.90
14884;DHT22;7534;50.762;7.000;2023-05-16T01:04:45;11.90;99.90
14884;DHT22;7534;50.762;7.000;2023-05-16T01:07:12;11.80;99.90
14884;DHT22;7534;50.762;7.000;2023-05-16T01:09:38;11.80;99.90
14884;DHT22;7534;50.762;7.000;2023-05-16T01:12:10;11.80;99.90
14884;DHT22;7534;50.762;7.000;2023-05-16T01:20:55;11.70;99.90
14884;DHT22;7534;50.762;7.000;2023-05-16T01:26:24;11.60;99.90
14884;DHT22;7534;50.762;7.000;2023-05-16T01:28:53;11.50;99.90
14884;DHT22;7534;50.762;7.000;2023-05-16T01:31:20;11.60;99.90
14884;DHT22;7534;50.762;7.000;2023-05-16T01:33:47;11.70;99.90
14884;DHT22;7534;50.762;7.000;2023-05-16T01:36:28;11.50;99.90
14884;DHT22;7534;50.762;7.000;2023-05-16T01:39:19;11.50;99.90
14884;DHT22;7534;50.762;7.000;2023-05-16T01:42:06;11.50;99.90
14884;DHT22;7534;50.762;7.000;2023-05-16T01:47:35;11.50;99.90
14884;DHT22;7534;50.762;7.000;2023-05-16T01:50:20;11.50;99.90
14884;DHT22;7534;50.762;7.000;2023-05-16T01:52:59;11.40;99.90
14884;DHT22;7534;50.762;7.000;2023-05-16T01:55:38;11.40;99.90
14884;DHT22;7534;50.762;7.000;2023-05-16T01:58:09;11.30;99.90
14884;DHT22;7534;50.762;7.000;2023-05-16T02:00:36;11.20;99.90
14884;DHT22;7534;50.762;7.000;2023-05-16T02:03:02;11.00;99.90
14884;DHT22;7534;50.762;7.000;2023-05-16T02:05:28;10.90;99.90
14884;DHT22;7534;50.762;7.000;2023-05-16T02:07:53;11.00;99.90
14884;DHT22;7534;50.762;7.000;2023-05-16T02:10:19;10.90;99.90
14884;DHT22;7534;50.762;7.000;2023-05-16T02:12:45;10.90;99.90
14884;DHT22;7534;50.762;7.000;2023-05-16T02:15:11;10.90;99.90
14884;DHT22;7534;50.762;7.000;2023-05-16T02:17:38;10.90;99.90
14884;DHT22;7534;50.762;7.000;2023-05-16T02:20:04;10.90;99.90
14884;DHT22;7534;50.762;7.000;2023-05-16T02:22:34;10.80;99.90
14884;DHT22;7534;50.762;7.000;2023-05-16T02:25:02;10.70;99.90
14884;DHT22;7534;50.762;7.000;2023-05-16T02:27:28;10.70;99.90
14884;DHT22;7534;50.762;7.000;2023-05-16T02:29:54;10.80;99.90
14884;DHT22;7534;50.762;7.000;2023-05-16T02:32:20;10.80;99.90
14884;DHT22;7534;50.762;7.000;2023-05-16T02:34:45;10.80;99.90
14884;DHT22;7534;50.762;7.000;2023-05-16T02:37:11;10.80;99.90
14884;DHT22;7534;50.762;7.000;2023-05-16T02:39:37;10.70;99.90
14884;DHT22;7534;50.762;7.000;2023-05-16T02:42:03;10.70;99.90
14884;DHT22;7534;50.762;7.000;2023-05-16T02:44:29;10.60;99.90
14884;DHT22;7534;50.762;7.000;2023-05-16T02:46:55;10.60;99.90
14884;DHT22;7534;50.762;7.000;2023-05-16T02:49:21;10.50;99.90
14884;DHT22;7534;50.762;7.000;2023-05-16T02:51:46;10.50;99.90
14884;DHT22;7534;50.762;7.000;2023-05-16T02:54:12;10.50;99.90
14884;DHT22;7534;50.762;7.000;2023-05-16T02:56:38;10.40;99.90
14884;DHT22;7534;50.762;7.000;2023-05-16T02:59:05;10.40;99.90
14884;DHT22;7534;50.762;7.000;2023-05-16T03:01:32;10.40;99.90
14884;DHT22;7534;50.762;7.000;2023-05-16T03:03:57;10.40;99.90
14884;DHT22;7534;50.762;7.000;2023-05-16T03:06:23;10.40;99.90
14884;DHT22;7534;50.762;7.000;2023-05-16T03:08:49;10.30;99.90
14884;DHT22;7534;50.762;7.000;2023-05-16T03:11:16;10.20;99.90
14884;DHT22;7534;50.762;7.000;2023-05-16T03:13:47;10.10;99.90
14884;DHT22;7534;50.762;7.000;2023-05-16T03:16:13;10.10;99.90
14884;DHT22;7534;50.762;7.000;2023-05-16T03:18:40;10.00;99.90
14884;DHT22;7534;50.762;7.000;2023-05-16T03:21:05;9.90;99.90
14884;DHT22;7534;50.762;7.000;2023-05-16T03:23:31;9.90;99.90
14884;DHT22;7534;50.762;7.000;2023-05-16T03:25:57;9.90;99.90
14884;DHT22;7534;50.762;7.000;2023-05-16T03:28:23;9.80;99.90
14884;DHT22;7534;50.762;7.000;2023-05-16T03:30:49;9.90;99.90
14884;DHT22;7534;50.762;7.000;2023-05-16T03:33:15;9.80;99.90
14884;DHT22;7534;50.762;7.000;2023-05-16T03:35:41;9.80;99.90
14884;DHT22;7534;50.762;7.000;2023-05-16T03:38:08;9.80;99.90
14884;DHT22;7534;50.762;7.000;2023-05-16T03:40:34;9.80;99.90
14884;DHT22;7534;50.762;7.000;2023-05-16T03:43:00;9.70;99.90
14884;DHT22;7534;50.762;7.000;2023-05-16T03:45:26;9.70;99.90
14884;DHT22;7534;50.762;7.000;2023-05-16T03:47:51;9.80;99.90
14884;DHT22;7534;50.762;7.000;2023-05-16T03:50:17;9.70;99.90
14884;DHT22;7534;50.762;7.000;2023-05-16T03:52:43;9.80;99.90
14884;DHT22;7534;50.762;7.000;2023-05-16T03:55:08;9.80;99.90
14884;DHT22;7534;50.762;7.000;2023-05-16T03:57:36;9.80;99.90
14884;DHT22;7534;50.762;7.000;2023-05-16T04:00:05;10.00;99.90
14884;DHT22;7534;50.762;7.000;2023-05-16T04:02:32;9.90;99.90
14884;DHT22;7534;50.762;7.000;2023-05-16T04:04:58;10.10;99.90
14884;DHT22;7534;50.762;7.000;2023-05-16T04:07:24;10.00;99.90
14884;DHT22;7534;50.762;7.000;2023-05-16T04:09:50;10.00;99.90
14884;DHT22;7534;50.762;7.000;2023-05-16T04:12:16;10.00;99.90
14884;DHT22;7534;50.762;7.000;2023-05-16T04:14:42;10.00;99.90
14884;DHT22;7534;50.762;7.000;2023-05-16T04:17:08;10.00;99.90
14884;DHT22;7534;50.762;7.000;2023-05-16T04:19:33;9.90;99.90
14884;DHT22;7534;50.762;7.000;2023-05-16T04:21:59;9.90;99.90
14884;DHT22;7534;50.762;7.000;2023-05-16T04:24:25;9.90;99.90
14884;DHT22;7534;50.762;7.000;2023-05-16T04:26:53;9.80;99.90
14884;DHT22;7534;50.762;7.000;2023-05-16T04:29:19;9.80;99.90
14884;DHT22;7534;50.762;7.000;2023-05-16T04:31:46;9.90;99.90
14884;DHT22;7534;50.762;7.000;2023-05-16T04:34:12;9.90;99.90
14884;DHT22;7534;50.762;7.000;2023-05-16T04:36:37;9.90;99.90
14884;DHT22;7534;50.762;7.000;2023-05-16T04:39:03;9.70;99.90
14884;DHT22;7534;50.762;7.000;2023-05-16T04:41:29;9.70;99.90
14884;DHT22;7534;50.762;7.000;2023-05-16T04:43:55;9.70;99.90
14884;DHT22;7534;50.762;7.000;2023-05-16T04:46:20;9.70;99.90
14884;DHT22;7534;50.762;7.000;2023-05-16T04:48:46;9.70;99.90
14884;DHT22;7534;50.762;7.000;2023-05-16T04:51:12;9.70;99.90
14884;DHT22;7534;50.762;7.000;2023-05-16T04:53:37;9.70;99.90
14884;DHT22;7534;50.762;7.000;2023-05-16T04:56:03;9.60;99.90
14884;DHT22;7534;50.762;7.000;2023-05-16T04:58:31;9.70;99.90
14884;DHT22;7534;50.762;7.000;2023-05-16T05:00:56;9.50;99.90
14884;DHT22;7534;50.762;7.000;2023-05-16T05:03:22;9.50;99.90
14884;DHT22;7534;50.762;7.000;2023-05-16T05:05:48;9.70;99.90
14884;DHT22;7534;50.762;7.000;2023-05-16T05:08:14;9.70;99.90
14884;DHT22;7534;50.762;7.000;2023-05-16T05:10:40;9.70;99.90
14884;DHT22;7534;50.762;7.000;2023-05-16T05:13:06;9.70;99.90
14884;DHT22;7534;50.762;7.000;2023-05-16T05:15:32;9.60;99.90
14884;DHT22;7534;50.762;7.000;2023-05-16T05:17:58;9.60;99.90
14884;DHT22;7534;50.762;7.000;2023-05-16T05:20:23;9.50;99.90
14884;DHT22;7534;50.762;7.000;2023-05-16T05:22:49;9.50;99.90
14884;DHT22;7534;50.762;7.000;2023-05-16T05:25:15;9.60;99.90
14884;DHT22;7534;50.762;7.000;2023-05-16T05:27:41;9.60;99.90
14884;DHT22;7534;50.762;7.000;2023-05-16T05:30:07;9.50;99.90
14884;DHT22;7534;50.762;7.000;2023-05-16T05:32:33;9.70;99.90
14884;DHT22;7534;50.762;7.000;2023-05-16T05:34:58;9.80;99.90
14884;DHT22;7534;50.762;7.000;2023-05-16T05:37:25;10.00;99.90
14884;DHT22;7534;50.762;7.000;2023-05-16T05:39:51;9.90;99.90
14884;DHT22;7534;50.762;7.000;2023-05-16T05:42:17;9.80;99.90
14884;DHT22;7534;50.762;7.000;2023-05-16T05:44:42;9.80;99.90
14884;DHT22;7534;50.762;7.000;2023-05-16T05:47:08;10.00;99.90
14884;DHT22;7534;50.762;7.000;2023-05-16T05:49:34;10.30;99.90
14884;DHT22;7534;50.762;7.000;2023-05-16T05:52:00;10.40;99.90
14884;DHT22;7534;50.762;7.000;2023-05-16T05:54:27;10.40;99.90
14884;DHT22;7534;50.762;7.000;2023-05-16T05:56:54;10.40;99.90
14884;DHT22;7534;50.762;7.000;2023-05-16T05:59:21;10.40;99.90
14884;DHT22;7534;50.762;7.000;2023-05-16T06:01:47;10.70;99.90
14884;DHT22;7534;50.762;7.000;2023-05-16T06:04:19;11.00;99.90
14884;DHT22;7534;50.762;7.000;2023-05-16T06:06:46;11.20;99.90
14884;DHT22;7534;50.762;7.000;2023-05-16T06:09:12;11.50;99.90
14884;DHT22;7534;50.762;7.000;2023-05-16T06:11:40;11.70;99.90
14884;DHT22;7534;50.762;7.000;2023-05-16T06:14:07;11.90;99.90
14884;DHT22;7534;50.762;7.000;2023-05-16T06:16:33;12.00;99.90
14884;DHT22;7534;50.762;7.000;2023-05-16T06:18:59;12.50;99.90
14884;DHT22;7534;50.762;7.000;2023-05-16T06:21:26;12.90;99.90
14884;DHT22;7534;50.762;7.000;2023-05-16T06:23:52;12.90;99.90
14884;DHT22;7534;50.762;7.000;2023-05-16T06:26:18;12.90;99.90
14884;DHT22;7534;50.762;7.000;2023-05-16T06:28:43;12.50;99.90
14884;DHT22;7534;50.762;7.000;2023-05-16T06:31:09;12.40;99.90
14884;DHT22;7534;50.762;7.000;2023-05-16T06:33:35;12.10;99.90
14884;DHT22;7534;50.762;7.000;2023-05-16T06:36:01;11.80;99.90
14884;DHT22;7534;50.762;7.000;2023-05-16T06:38:26;11.60;99.90
14884;DHT22;7534;50.762;7.000;2023-05-16T06:40:52;11.70;99.90
14884;DHT22;7534;50.762;7.000;2023-05-16T06:43:18;11.80;99.90
14884;DHT22;7534;50.762;7.000;2023-05-16T06:45:43;12.20;99.90
14884;DHT22;7534;50.762;7.000;2023-05-16T06:48:12;12.70;99.90
14884;DHT22;7534;50.762;7.000;2023-05-16T06:50:39;13.50;99.90
14884;DHT22;7534;50.762;7.000;2023-05-16T06:53:04;15.30;99.50
14884;DHT22;7534;50.762;7.000;2023-05-16T06:55:32;17.50;93.40
14884;DHT22;7534;50.762;7.000;2023-05-16T06:57:58;19.00;90.10
14884;DHT22;7534;50.762;7.000;2023-05-16T07:00:24;20.10;87.40
14884;DHT22;7534;50.762;7.000;2023-05-16T07:02:50;20.50;82.30
14884;DHT22;7534;50.762;7.000;2023-05-16T07:05:15;19.30;79.00
14884;DHT22;7534;50.762;7.000;2023-05-16T07:07:41;18.10;83.50
14884;DHT22;7534;50.762;7.000;2023-05-16T07:10:07;17.60;87.30
14884;DHT22;7534;50.762;7.000;2023-05-16T07:12:35;16.70;87.60
14884;DHT22;7534;50.762;7.000;2023-05-16T07:15:02;15.60;90.00
14884;DHT22;7534;50.762;7.000;2023-05-16T07:17:29;14.60;91.40
14884;DHT22;7534;50.762;7.000;2023-05-16T07:19:54;13.90;92.30
14884;DHT22;7534;50.762;7.000;2023-05-16T07:22:20;13.40;94.10
14884;DHT22;7534;50.762;7.000;2023-05-16T07:24:45;12.90;94.50
14884;DHT22;7534;50.762;7.000;2023-05-16T07:27:11;13.80;95.80
14884;DHT22;7534;50.762;7.000;2023-05-16T07:29:40;16.00;91.40
14884;DHT22;7534;50.762;7.000;2023-05-16T07:32:06;16.00;90.10
14884;DHT22;7534;50.762;7.000;2023-05-16T07:34:33;17.20;88.80
14884;DHT22;7534;50.762;7.000;2023-05-16T07:36:58;18.10;83.80
14884;DHT22;7534;50.762;7.000;2023-05-16T07:39:24;19.20;80.30
14884;DHT22;7534;50.762;7.000;2023-05-16T07:41:50;19.20;77.60
14884;DHT22;7534;50.762;7.000;2023-05-16T07:44:15;18.50;79.90
14884;DHT22;7534;50.762;7.000;2023-05-16T07:46:41;18.00;82.00
14884;DHT22;7534;50.762;7.000;2023-05-16T07:49:09;18.50;79.60
14884;DHT22;7534;50.762;7.000;2023-05-16T07:51:35;19.80;76.80
14884;DHT22;7534;50.762;7.000;2023-05-16T07:54:01;20.20;70.20
14884;DHT22;7534;50.762;7.000;2023-05-16T07:56:26;19.10;72.60
14884;DHT22;7534;50.762;7.000;2023-05-16T07:58:53;19.60;70.40
14884;DHT22;7534;50.762;7.000;2023-05-16T08:01:19;19.80;66.90
14884;DHT22;7534;50.762;7.000;2023-05-16T08:03:45;18.90;69.00
14884;DHT22;7534;50.762;7.000;2023-05-16T08:06:11;17.30;71.50
14884;DHT22;7534;50.762;7.000;2023-05-16T08:08:37;16.30;76.20
14884;DHT22;7534;50.762;7.000;2023-05-16T08:11:03;15.90;80.50
14884;DHT22;7534;50.762;7.000;2023-05-16T08:13:29;18.00;77.70
14884;DHT22;7534;50.762;7.000;2023-05-16T08:15:56;20.00;69.90
14884;DHT22;7534;50.762;7.000;2023-05-16T08:18:21;22.20;64.30
14884;DHT22;7534;50.762;7.000;2023-05-16T08:20:47;24.40;61.30
14884;DHT22;7534;50.762;7.000;2023-05-16T08:23:13;25.60;56.50
14884;DHT22;7534;50.762;7.000;2023-05-16T08:25:39;25.20;55.40
14884;DHT22;7534;50.762;7.000;2023-05-16T08:28:04;23.40;55.40
14884;DHT22;7534;50.762;7.000;2023-05-16T08:30:30;22.60;60.90
14884;DHT22;7534;50.762;7.000;2023-05-16T08:32:56;21.10;63.30
14884;DHT22;7534;50.762;7.000;2023-05-16T08:35:22;21.00;65.90
14884;DHT22;7534;50.762;7.000;2023-05-16T08:37:48;20.20;67.00
14884;DHT22;7534;50.762;7.000;2023-05-16T08:40:14;19.20;71.40
14884;DHT22;7534;50.762;7.000;2023-05-16T08:42:40;18.00;74.20
14884;DHT22;7534;50.762;7.000;2023-05-16T08:45:07;16.80;76.10
14884;DHT22;7534;50.762;7.000;2023-05-16T08:47:33;16.10;82.00
14884;DHT22;7534;50.762;7.000;2023-05-16T08:50:07;16.30;84.00
14884;DHT22;7534;50.762;7.000;2023-05-16T08:52:36;16.80;83.20
14884;DHT22;7534;50.762;7.000;2023-05-16T08:55:03;18.20;78.10
14884;DHT22;7534;50.762;7.000;2023-05-16T08:57:31;18.10;76.20
14884;DHT22;7534;50.762;7.000;2023-05-16T09:02:28;18.70;75.10
14884;DHT22;7534;50.762;7.000;2023-05-16T09:05:00;19.30;72.60
14884;DHT22;7534;50.762;7.000;2023-05-16T09:10:32;19.50;72.70
14884;DHT22;7534;50.762;7.000;2023-05-16T09:12:58;19.20;70.60
14884;DHT22;7534;50.762;7.000;2023-05-16T09:15:32;20.40;70.10
14884;DHT22;7534;50.762;7.000;2023-05-16T09:18:11;21.70;60.80
14884;DHT22;7534;50.762;7.000;2023-05-16T09:20:43;22.00;59.80
14884;DHT22;7534;50.762;7.000;2023-05-16T09:23:14;24.10;56.70
14884;DHT22;7534;50.762;7.000;2023-05-16T09:25:41;25.20;50.90
14884;DHT22;7534;50.762;7.000;2023-05-16T09:28:09;24.70;50.40
14884;DHT22;7534;50.762;7.000;2023-05-16T09:30:36;23.40;51.50
14884;DHT22;7534;50.762;7.000;2023-05-16T09:33:05;22.00;53.70
14884;DHT22;7534;50.762;7.000;2023-05-16T09:35:32;22.70;52.60
14884;DHT22;7534;50.762;7.000;2023-05-16T09:37:57;23.80;50.70
14884;DHT22;7534;50.762;7.000;2023-05-16T09:40:23;22.80;48.90
14884;DHT22;7534;50.762;7.000;2023-05-16T09:43:07;22.40;52.70
14884;DHT22;7534;50.762;7.000;2023-05-16T09:45:34;21.60;52.40
14884;DHT22;7534;50.762;7.000;2023-05-16T09:48:05;21.80;52.80
14884;DHT22;7534;50.762;7.000;2023-05-16T09:50:34;21.20;54.30
14884;DHT22;7534;50.762;7.000;2023-05-16T09:53:01;20.20;56.10
14884;DHT22;7534;50.762;7.000;2023-05-16T09:55:28;19.30;59.20
14884;DHT22;7534;50.762;7.000;2023-05-16T09:57:55;20.80;60.10
14884;DHT22;7534;50.762;7.000;2023-05-16T10:00:20;21.60;54.70
14884;DHT22;7534;50.762;7.000;2023-05-16T10:02:46;21.00;56.10
14884;DHT22;7534;50.762;7.000;2023-05-16T10:05:14;21.20;53.90
14884;DHT22;7534;50.762;7.000;2023-05-16T10:07:41;21.00;54.30
14884;DHT22;7534;50.762;7.000;2023-05-16T10:10:09;20.10;56.50
14884;DHT22;7534;50.762;7.000;2023-05-16T10:12:37;19.00;57.80
14884;DHT22;7534;50.762;7.000;2023-05-16T10:15:04;18.60;59.80
14884;DHT22;7534;50.762;7.000;2023-05-16T10:17:33;19.50;60.90
14884;DHT22;7534;50.762;7.000;2023-05-16T10:20:05;19.20;58.40
14884;DHT22;7534;50.762;7.000;2023-05-16T10:22:37;19.60;59.00
14884;DHT22;7534;50.762;7.000;2023-05-16T10:25:37;20.30;59.10
14884;DHT22;7534;50.762;7.000;2023-05-16T10:28:07;19.70;54.60
14884;DHT22;7534;50.762;7.000;2023-05-16T10:30:33;19.50;55.80
14884;DHT22;7534;50.762;7.000;2023-05-16T10:33:03;18.90;57.70
14884;DHT22;7534;50.762;7.000;2023-05-16T10:35:30;19.40;54.40
14884;DHT22;7534;50.762;7.000;2023-05-16T10:37:57;20.70;54.80
14884;DHT22;7534;50.762;7.000;2023-05-16T10:40:25;20.50;52.80
14884;DHT22;7534;50.762;7.000;2023-05-16T10:43:02;19.50;55.60
14884;DHT22;7534;50.762;7.000;2023-05-16T10:45:29;18.70;56.30
14884;DHT22;7534;50.762;7.000;2023-05-16T10:48:00;18.20;58.20
14884;DHT22;7534;50.762;7.000;2023-05-16T10:53:31;19.60;57.00
14884;DHT22;7534;50.762;7.000;2023-05-16T10:58:41;18.80;56.80
14884;DHT22;7534;50.762;7.000;2023-05-16T11:01:22;18.10;58.20
14884;DHT22;7534;50.762;7.000;2023-05-16T11:06:34;17.80;57.40
14884;DHT22;7534;50.762;7.000;2023-05-16T11:11:55;18.50;54.90
14884;DHT22;7534;50.762;7.000;2023-05-16T11:14:36;18.20;56.40
14884;DHT22;7534;50.762;7.000;2023-05-16T11:17:23;17.90;55.90
14884;DHT22;7534;50.762;7.000;2023-05-16T11:19:57;17.90;56.80
14884;DHT22;7534;50.762;7.000;2023-05-16T11:22:28;18.20;57.00
14884;DHT22;7534;50.762;7.000;2023-05-16T11:25:02;18.60;57.20
14884;DHT22;7534;50.762;7.000;2023-05-16T11:30:13;19.20;52.90
14884;DHT22;7534;50.762;7.000;2023-05-16T11:32:43;19.40;55.60
14884;DHT22;7534;50.762;7.000;2023-05-16T11:35:12;18.90;54.60
14884;DHT22;7534;50.762;7.000;2023-05-16T11:37:39;18.80;57.10
14884;DHT22;7534;50.762;7.000;2023-05-16T11:40:07;18.40;60.80
14884;DHT22;7534;50.762;7.000;2023-05-16T11:42:44;18.10;61.70
14884;DHT22;7534;50.762;7.000;2023-05-16T11:45:14;17.70;62.50
14884;DHT22;7534;50.762;7.000;2023-05-16T11:47:43;17.80;62.60
14884;DHT22;7534;50.762;7.000;2023-05-16T11:50:13;18.10;62.80
14884;DHT22;7534;50.762;7.000;2023-05-16T11:52:48;18.30;62.50
14884;DHT22;7534;50.762;7.000;2023-05-16T11:55:23;18.30;60.10
14884;DHT22;7534;50.762;7.000;2023-05-16T11:57:51;18.90;59.10
14884;DHT22;7534;50.762;7.000;2023-05-16T12:00:18;19.30;58.00
14884;DHT22;7534;50.762;7.000;2023-05-16T12:02:47;19.60;56.10
14884;DHT22;7534;50.762;7.000;2023-05-16T12:05:17;19.90;59.70
14884;DHT22;7534;50.762;7.000;2023-05-16T12:07:46;20.00;58.30
14884;DHT22;7534;50.762;7.000;2023-05-16T12:10:14;19.90;57.20
14884;DHT22;7534;50.762;7.000;2023-05-16T12:12:43;19.50;55.50
14884;DHT22;7534;50.762;7.000;2023-05-16T12:15:11;19.30;59.00
14884;DHT22;7534;50.762;7.000;2023-05-16T12:17:39;19.20;58.60
14884;DHT22;7534;50.762;7.000;2023-05-16T12:20:08;19.00;58.90
14884;DHT22;7534;50.762;7.000;2023-05-16T12:22:43;18.90;59.90
14884;DHT22;7534;50.762;7.000;2023-05-16T12:27:56;18.30;59.40
14884;DHT22;7534;50.762;7.000;2023-05-16T12:30:24;18.30;59.00
14884;DHT22;7534;50.762;7.000;2023-05-16T12:32:59;18.30;60.60
14884;DHT22;7534;50.762;7.000;2023-05-16T12:35:32;18.40;61.10
14884;DHT22;7534;50.762;7.000;2023-05-16T12:38:02;18.40;60.10
14884;DHT22;7534;50.762;7.000;2023-05-16T12:40:30;18.40;64.40
14884;DHT22;7534;50.762;7.000;2023-05-16T12:42:56;18.60;64.10
14884;DHT22;7534;50.762;7.000;2023-05-16T12:45:25;18.80;63.00
14884;DHT22;7534;50.762;7.000;2023-05-16T12:47:52;19.10;58.70
14884;DHT22;7534;50.762;7.000;2023-05-16T12:50:18;19.40;59.00
14884;DHT22;7534;50.762;7.000;2023-05-16T12:52:51;19.30;58.40
14884;DHT22;7534;50.762;7.000;2023-05-16T12:55:20;19.00;58.70
14884;DHT22;7534;50.762;7.000;2023-05-16T12:57:47;18.90;56.60
14884;DHT22;7534;50.762;7.000;2023-05-16T13:00:15;18.60;56.10
14884;DHT22;7534;50.762;7.000;2023-05-16T13:02:43;18.60;54.20
14884;DHT22;7534;50.762;7.000;2023-05-16T13:05:10;18.70;54.70
14884;DHT22;7534;50.762;7.000;2023-05-16T13:07:36;18.70;55.50
14884;DHT22;7534;50.762;7.000;2023-05-16T13:10:14;18.50;55.50
14884;DHT22;7534;50.762;7.000;2023-05-16T13:12:40;18.10;55.70
14884;DHT22;7534;50.762;7.000;2023-05-16T13:15:07;17.90;57.00
14884;DHT22;7534;50.762;7.000;2023-05-16T13:17:37;17.80;58.60
14884;DHT22;7534;50.762;7.000;2023-05-16T13:20:04;17.90;60.10
14884;DHT22;7534;50.762;7.000;2023-05-16T13:22:36;18.20;65.30
14884;DHT22;7534;50.762;7.000;2023-05-16T13:25:03;18.60;64.00
14884;DHT22;7534;50.762;7.000;2023-05-16T13:27:30;18.80;61.50
14884;DHT22;7534;50.762;7.000;2023-05-16T13:29:57;18.80;61.60
14884;DHT22;7534;50.762;7.000;2023-05-16T13:32:24;18.90;65.00
14884;DHT22;7534;50.762;7.000;2023-05-16T13:34:50;18.80;61.50
14884;DHT22;7534;50.762;7.000;2023-05-16T13:37:19;18.90;61.40
14884;DHT22;7534;50.762;7.000;2023-05-16T13:39:45;19.10;58.80
14884;DHT22;7534;50.762;7.000;2023-05-16T13:42:11;19.30;60.50
14884;DHT22;7534;50.762;7.000;2023-05-16T13:44:37;19.40;60.50
14884;DHT22;7534;50.762;7.000;2023-05-16T13:47:02;19.10;62.30
14884;DHT22;7534;50.762;7.000;2023-05-16T13:49:28;18.80;64.50
14884;DHT22;7534;50.762;7.000;2023-05-16T13:51:54;18.80;64.00
14884;DHT22;7534;50.762;7.000;2023-05-16T13:54:21;19.10;65.60
14884;DHT22;7534;50.762;7.000;2023-05-16T13:56:47;18.90;62.10
14884;DHT22;7534;50.762;7.000;2023-05-16T13:59:13;18.90;61.50
14884;DHT22;7534;50.762;7.000;2023-05-16T14:01:39;18.70;53.80
14884;DHT22;7534;50.762;7.000;2023-05-16T14:04:04;18.80;54.70
14884;DHT22;7534;50.762;7.000;2023-05-16T14:06:30;19.00;50.30
14884;DHT22;7534;50.762;7.000;2023-05-16T14:08:56;18.80;51.30
14884;DHT22;7534;50.762;7.000;2023-05-16T14:11:22;18.60;52.70
14884;DHT22;7534;50.762;7.000;2023-05-16T14:13:52;18.90;54.80
14884;DHT22;7534;50.762;7.000;2023-05-16T14:16:20;19.00;54.50
14884;DHT22;7534;50.762;7.000;2023-05-16T14:18:45;18.80;52.60
14884;DHT22;7534;50.762;7.000;2023-05-16T14:21:12;19.10;56.00
14884;DHT22;7534;50.762;7.000;2023-05-16T14:23:38;19.10;55.40
14884;DHT22;7534;50.762;7.000;2023-05-16T14:26:05;19.50;55.70
14884;DHT22;7534;50.762;7.000;2023-05-16T14:28:30;19.90;53.80
14884;DHT22;7534;50.762;7.000;2023-05-16T14:30:59;19.80;51.10
14884;DHT22;7534;50.762;7.000;2023-05-16T14:33:25;19.70;51.60
14884;DHT22;7534;50.762;7.000;2023-05-16T14:35:52;20.10;54.70
14884;DHT22;7534;50.762;7.000;2023-05-16T14:38:18;20.30;51.70
14884;DHT22;7534;50.762;7.000;2023-05-16T14:40:44;20.50;52.60
14884;DHT22;7534;50.762;7.000;2023-05-16T14:43:10;20.40;53.40
14884;DHT22;7534;50.762;7.000;2023-05-16T14:45:37;20.20;54.00
14884;DHT22;7534;50.762;7.000;2023-05-16T14:48:05;20.10;54.70
14884;DHT22;7534;50.762;7.000;2023-05-16T14:50:31;19.80;53.30
14884;DHT22;7534;50.762;7.000;2023-05-16T14:52:57;19.60;54.60
14884;DHT22;7534;50.762;7.000;2023-05-16T14:55:22;19.50;54.90
14884;DHT22;7534;50.762;7.000;2023-05-16T14:57:48;19.30;54.20
14884;DHT22;7534;50.762;7.000;2023-05-16T15:00:14;19.40;53.50
14884;DHT22;7534;50.762;7.000;2023-05-16T15:02:41;19.40;50.60
14884;DHT22;7534;50.762;7.000;2023-05-16T15:05:08;19.30;49.80
14884;DHT22;7534;50.762;7.000;2023-05-16T15:07:34;19.60;49.20
14884;DHT22;7534;50.762;7.000;2023-05-16T15:10:01;19.80;47.90
14884;DHT22;7534;50.762;7.000;2023-05-16T15:12:26;19.70;48.00
14884;DHT22;7534;50.762;7.000;2023-05-16T15:14:52;19.70;50.30
14884;DHT22;7534;50.762;7.000;2023-05-16T15:17:19;19.40;50.50
14884;DHT22;7534;50.762;7.000;2023-05-16T15:19:45;18.90;50.70
14884;DHT22;7534;50.762;7.000;2023-05-16T15:22:12;18.50;52.50
14884;DHT22;7534;50.762;7.000;2023-05-16T15:24:37;18.20;53.90
14884;DHT22;7534;50.762;7.000;2023-05-16T15:27:03;18.10;55.10
14884;DHT22;7534;50.762;7.000;2023-05-16T15:29:29;18.00;54.90
14884;DHT22;7534;50.762;7.000;2023-05-16T15:31:56;17.90;56.70
14884;DHT22;7534;50.762;7.000;2023-05-16T15:34:22;17.70;56.20
14884;DHT22;7534;50.762;7.000;2023-05-16T15:36:48;17.60;57.90
14884;DHT22;7534;50.762;7.000;2023-05-16T15:39:14;17.30;59.10
14884;DHT22;7534;50.762;7.000;2023-05-16T15:41:41;16.80;59.30
14884;DHT22;7534;50.762;7.000;2023-05-16T15:44:07;16.90;59.80
14884;DHT22;7534;50.762;7.000;2023-05-16T15:46:32;16.90;60.20
14884;DHT22;7534;50.762;7.000;2023-05-16T15:48:58;17.00;61.00
14884;DHT22;7534;50.762;7.000;2023-05-16T15:51:24;17.50;63.50
14884;DHT22;7534;50.762;7.000;2023-05-16T15:53:50;17.90;61.50
14884;DHT22;7534;50.762;7.000;2023-05-16T15:56:16;18.00;61.30
14884;DHT22;7534;50.762;7.000;2023-05-16T15:58:42;17.90;62.50
14884;DHT22;7534;50.762;7.000;2023-05-16T16:01:11;17.90;62.40
14884;DHT22;7534;50.762;7.000;2023-05-16T16:03:36;17.70;61.90
14884;DHT22;7534;50.762;7.000;2023-05-16T16:06:02;17.40;63.00
14884;DHT22;7534;50.762;7.000;2023-05-16T16:08:28;17.40;65.70
14884;DHT22;7534;50.762;7.000;2023-05-16T16:10:54;17.40;67.20
14884;DHT22;7534;50.762;7.000;2023-05-16T16:13:20;17.10;65.80
14884;DHT22;7534;50.762;7.000;2023-05-16T16:15:45;17.00;65.80
14884;DHT22;7534;50.762;7.000;2023-05-16T16:18:11;17.00;65.80
14884;DHT22;7534;50.762;7.000;2023-05-16T16:20:38;16.90;66.00
14884;DHT22;7534;50.762;7.000;2023-05-16T16:23:03;16.80;66.10